createdAt,value
2023-01-15T00:01:26.197Z,5.72
2023-01-15T00:03:54.653Z,5.73
2023-01-15T00:06:22.428Z,5.78
2023-01-15T00:08:50.145Z,5.70
2023-01-15T00:11:17.104Z,5.78
2023-01-15T00:13:43.793Z,5.80
2023-01-15T00:16:15.867Z,5.75
2023-01-15T00:18:42.634Z,5.78
2023-01-15T00:21:12.639Z,5.80
2023-01-15T00:24:18.164Z,5.81
2023-01-15T00:27:03.243Z,5.84
2023-01-15T00:29:29.916Z,5.89
2023-01-15T00:31:58.792Z,5.75
2023-01-15T00:34:26.083Z,5.69
2023-01-15T00:36:52.563Z,5.70
2023-01-15T00:39:19.066Z,5.68
2023-01-15T00:41:45.769Z,5.75
2023-01-15T00:44:12.165Z,5.72
2023-01-15T00:46:38.732Z,5.72
2023-01-15T00:49:05.302Z,5.76
2023-01-15T00:51:31.897Z,5.74
2023-01-15T00:53:58.427Z,5.74
2023-01-15T00:56:24.972Z,5.86
2023-01-15T00:58:51.351Z,5.86
2023-01-15T01:01:17.888Z,5.85
2023-01-15T01:03:48.846Z,5.72
2023-01-15T01:06:16.941Z,5.70
2023-01-15T01:08:46.075Z,5.77
2023-01-15T01:11:15.330Z,5.74
2023-01-15T01:13:42.182Z,5.64
2023-01-15T01:16:23.651Z,5.66
2023-01-15T01:18:50.190Z,5.71
2023-01-15T01:21:17.122Z,5.64
2023-01-15T01:23:44.171Z,5.72
2023-01-15T01:26:10.651Z,5.66
2023-01-15T01:28:37.041Z,5.64
2023-01-15T01:31:07.678Z,5.74
2023-01-15T01:33:34.364Z,5.73
2023-01-15T01:36:01.411Z,5.69
2023-01-15T01:38:27.836Z,5.70
2023-01-15T01:40:54.195Z,5.69
2023-01-15T01:43:24.742Z,5.75
2023-01-15T01:45:51.173Z,5.73
2023-01-15T01:48:21.272Z,5.68
2023-01-15T01:50:48.837Z,5.68
2023-01-15T01:53:20.239Z,5.73
2023-01-15T01:55:47.037Z,5.79
2023-01-15T01:58:14.899Z,5.78
2023-01-15T02:00:46.581Z,5.89
2023-01-15T02:03:13.503Z,5.80
2023-01-15T02:05:50.340Z,5.82
2023-01-15T02:08:16.729Z,5.85
2023-01-15T02:10:43.779Z,5.89
2023-01-15T02:13:14.013Z,5.86
2023-01-15T02:16:17.212Z,5.83
2023-01-15T02:18:56.172Z,5.81
2023-01-15T02:21:27.067Z,5.76
2023-01-15T02:24:37.024Z,5.76
2023-01-15T02:27:16.821Z,5.75
2023-01-15T02:29:58.657Z,5.82
2023-01-15T02:32:46.329Z,5.77
2023-01-15T02:35:22.900Z,5.77
2023-01-15T02:37:53.064Z,5.71
2023-01-15T02:40:22.418Z,5.74
2023-01-15T02:42:49.854Z,5.65
2023-01-15T02:45:24.206Z,5.71
2023-01-15T02:47:53.013Z,5.83
2023-01-15T02:50:25.187Z,5.87
2023-01-15T02:52:56.551Z,5.77
2023-01-15T02:55:37.428Z,5.67
2023-01-15T02:58:09.424Z,5.61
2023-01-15T03:00:41.342Z,5.59
2023-01-15T03:03:16.657Z,5.58
2023-01-15T03:05:59.640Z,5.62
2023-01-15T03:08:26.379Z,5.63
2023-01-15T03:11:08.422Z,5.58
2023-01-15T03:13:54.585Z,5.64
2023-01-15T03:16:47.511Z,5.57
2023-01-15T03:19:31.369Z,5.54
2023-01-15T03:22:12.915Z,5.60
2023-01-15T03:24:46.138Z,5.53
2023-01-15T03:27:13.499Z,5.48
2023-01-15T03:29:44.983Z,5.52
2023-01-15T03:32:11.718Z,5.50
2023-01-15T03:34:44.711Z,5.48
2023-01-15T03:37:11.783Z,5.52
2023-01-15T03:39:39.277Z,5.55
2023-01-15T03:42:27.696Z,5.61
2023-01-15T03:45:06.327Z,5.48
2023-01-15T03:48:10.069Z,5.52
2023-01-15T03:51:01.927Z,5.36
2023-01-15T03:53:38.710Z,5.42
2023-01-15T03:56:16.869Z,5.41
2023-01-15T03:59:09.305Z,5.35
2023-01-15T04:01:41.590Z,5.34
2023-01-15T04:04:10.003Z,5.33
2023-01-15T04:06:40.125Z,5.38
2023-01-15T04:09:09.015Z,5.51
2023-01-15T04:11:35.445Z,5.49
2023-01-15T04:14:02.087Z,5.50
2023-01-15T04:16:30.513Z,5.45
2023-01-15T04:18:57.141Z,5.51
2023-01-15T04:21:24.081Z,5.50
2023-01-15T04:23:50.854Z,5.52
2023-01-15T04:26:17.876Z,5.51
2023-01-15T04:28:45.252Z,5.56
2023-01-15T04:31:11.745Z,5.45
2023-01-15T04:33:40.027Z,5.42
2023-01-15T04:36:07.362Z,5.31
2023-01-15T04:38:33.823Z,5.36
2023-01-15T04:41:23.498Z,5.37
2023-01-15T04:44:08.327Z,5.43
2023-01-15T04:46:40.402Z,5.46
2023-01-15T04:49:09.960Z,5.38
2023-01-15T04:51:36.576Z,5.32
2023-01-15T04:54:04.413Z,5.36
2023-01-15T04:56:30.954Z,5.46
2023-01-15T04:59:00.571Z,5.36
2023-01-15T05:01:27.356Z,5.21
2023-01-15T05:03:54.847Z,5.11
2023-01-15T05:06:21.268Z,5.10
2023-01-15T05:08:47.683Z,5.13
2023-01-15T05:11:14.164Z,5.28
2023-01-15T05:13:40.639Z,5.13
2023-01-15T05:16:09.261Z,5.16
2023-01-15T05:18:35.927Z,5.09
2023-01-15T05:21:02.982Z,5.02
2023-01-15T05:23:29.432Z,4.91
2023-01-15T05:25:55.870Z,4.92
2023-01-15T05:28:22.347Z,4.94
2023-01-15T05:30:48.785Z,5.00
2023-01-15T05:33:15.218Z,5.03
2023-01-15T05:35:41.609Z,5.00
2023-01-15T05:38:08.072Z,5.11
2023-01-15T05:40:34.483Z,5.05
2023-01-15T05:43:00.907Z,4.96
2023-01-15T05:45:27.317Z,4.91
2023-01-15T05:47:53.842Z,5.02
2023-01-15T05:50:20.271Z,5.06
2023-01-15T05:52:46.721Z,5.07
2023-01-15T05:55:13.126Z,5.06
2023-01-15T05:57:39.479Z,5.06
2023-01-15T06:00:06.615Z,5.10
2023-01-15T06:02:33.046Z,5.00
2023-01-15T06:04:59.568Z,4.94
2023-01-15T06:07:25.981Z,5.04
2023-01-15T06:09:52.338Z,5.06
2023-01-15T06:12:18.750Z,4.98
2023-01-15T06:14:45.195Z,4.94
2023-01-15T06:17:11.576Z,4.98
2023-01-15T06:19:37.972Z,5.02
2023-01-15T06:22:04.349Z,5.07
2023-01-15T06:24:30.798Z,5.09
2023-01-15T06:26:57.173Z,5.06
2023-01-15T06:29:23.559Z,5.10
2023-01-15T06:31:50.187Z,5.13
2023-01-15T06:34:16.713Z,5.11
2023-01-15T06:36:43.145Z,5.10
2023-01-15T06:39:09.559Z,5.08
2023-01-15T06:41:54.842Z,5.01
2023-01-15T06:44:39.583Z,4.97
2023-01-15T06:47:21.605Z,4.96
2023-01-15T06:49:51.063Z,4.96
2023-01-15T06:52:17.467Z,5.00
2023-01-15T06:54:43.898Z,5.06
2023-01-15T06:57:10.472Z,5.10
2023-01-15T06:59:36.949Z,5.03
2023-01-15T07:02:03.469Z,5.03
2023-01-15T07:04:30.051Z,5.10
2023-01-15T07:06:56.606Z,5.11
2023-01-15T07:09:23.060Z,5.24
2023-01-15T07:11:49.716Z,5.19
2023-01-15T07:14:17.863Z,5.16
2023-01-15T07:16:44.329Z,5.24
2023-01-15T07:19:10.834Z,5.15
2023-01-15T07:21:37.220Z,5.31
2023-01-15T07:24:03.975Z,5.27
2023-01-15T07:26:30.473Z,5.20
2023-01-15T07:28:56.904Z,5.30
2023-01-15T07:31:23.532Z,5.30
2023-01-15T07:33:50.066Z,5.32
2023-01-15T07:36:16.513Z,5.46
2023-01-15T07:38:42.923Z,5.45
2023-01-15T07:41:28.044Z,5.50
2023-01-15T07:44:12.897Z,5.50
2023-01-15T07:46:58.312Z,5.32
2023-01-15T07:49:43.523Z,5.09
2023-01-15T07:52:09.927Z,5.21
2023-01-15T07:54:36.265Z,5.26
2023-01-15T07:57:03.845Z,5.21
2023-01-15T07:59:30.317Z,5.21
2023-01-15T08:01:56.816Z,5.18
2023-01-15T08:04:23.284Z,5.15
2023-01-15T08:06:49.662Z,5.08
2023-01-15T08:09:16.102Z,5.09
2023-01-15T08:12:00.980Z,5.12
2023-01-15T08:14:45.849Z,5.16
2023-01-15T08:17:12.253Z,5.24
2023-01-15T08:19:38.647Z,5.30
2023-01-15T08:22:05.088Z,5.33
2023-01-15T08:24:31.519Z,5.32
2023-01-15T08:26:57.944Z,5.37
2023-01-15T08:29:24.329Z,5.43
2023-01-15T08:31:50.768Z,5.51
2023-01-15T08:34:17.197Z,5.47
2023-01-15T08:36:43.637Z,5.50
2023-01-15T08:39:10.095Z,5.52
2023-01-15T08:41:36.509Z,5.58
2023-01-15T08:44:03.046Z,5.61
2023-01-15T08:46:29.479Z,5.70
2023-01-15T08:48:55.889Z,5.65
2023-01-15T08:51:22.349Z,5.68
2023-01-15T08:53:48.870Z,5.64
2023-01-15T08:56:17.356Z,5.61
2023-01-15T08:58:44.775Z,5.61
2023-01-15T09:01:15.854Z,5.65
2023-01-15T09:03:43.142Z,5.68
2023-01-15T09:06:11.220Z,5.76
2023-01-15T09:08:37.956Z,5.82
2023-01-15T09:11:05.893Z,5.94
2023-01-15T09:13:33.011Z,6.01
2023-01-15T09:16:00.817Z,6.00
2023-01-15T09:18:27.631Z,5.96
2023-01-15T09:20:54.373Z,5.96
2023-01-15T09:23:20.866Z,6.06
2023-01-15T09:25:58.698Z,6.06
2023-01-15T09:28:25.216Z,5.96
2023-01-15T09:30:51.816Z,6.01
2023-01-15T09:33:18.737Z,5.90
2023-01-15T09:35:45.809Z,5.86
2023-01-15T09:38:13.715Z,5.84
2023-01-15T09:40:50.380Z,5.99
2023-01-15T09:43:50.446Z,6.13
2023-01-15T09:46:30.593Z,6.27
2023-01-15T09:49:22.217Z,6.20
2023-01-15T09:52:02.487Z,6.16
2023-01-15T09:55:14.259Z,6.22
2023-01-15T09:57:42.079Z,6.27
2023-01-15T10:00:19.462Z,6.35
2023-01-15T10:03:07.727Z,6.39
2023-01-15T10:05:41.402Z,6.49
2023-01-15T10:08:21.440Z,6.55
2023-01-15T10:10:53.726Z,6.90
2023-01-15T10:13:29.951Z,6.89
2023-01-15T10:15:58.492Z,6.90
2023-01-15T10:18:27.023Z,6.88
2023-01-15T10:21:08.153Z,7.00
2023-01-15T10:24:11.322Z,6.76
2023-01-15T10:26:53.129Z,6.64
2023-01-15T10:29:37.751Z,6.54
2023-01-15T10:32:24.157Z,6.55
2023-01-15T10:35:16.950Z,6.64
2023-01-15T10:37:54.359Z,6.78
2023-01-15T10:40:34.736Z,6.71
2023-01-15T10:43:25.795Z,6.85
2023-01-15T10:46:03.990Z,7.07
2023-01-15T10:48:48.639Z,6.97
2023-01-15T10:51:22.036Z,7.00
2023-01-15T10:54:05.183Z,7.04
2023-01-15T10:56:31.651Z,7.05
2023-01-15T10:59:22.170Z,7.18
2023-01-15T11:01:52.962Z,7.29
2023-01-15T11:04:19.763Z,7.32
2023-01-15T11:06:46.284Z,7.19
2023-01-15T11:09:21.307Z,7.27
2023-01-15T11:11:59.486Z,7.47
2023-01-15T11:15:01.981Z,7.40
2023-01-15T11:18:03.199Z,7.43
2023-01-15T11:20:36.151Z,7.32
2023-01-15T11:23:16.732Z,7.36
2023-01-15T11:25:54.369Z,7.61
2023-01-15T11:28:34.833Z,7.69
2023-01-15T11:31:01.377Z,7.85
2023-01-15T11:33:29.701Z,7.80
2023-01-15T11:35:58.707Z,7.83
2023-01-15T11:38:27.503Z,7.88
2023-01-15T11:41:02.215Z,7.82
2023-01-15T11:43:49.318Z,7.71
2023-01-15T11:46:43.755Z,7.64
2023-01-15T11:49:29.978Z,7.22
2023-01-15T11:51:58.722Z,6.81
2023-01-15T11:54:26.387Z,6.91
2023-01-15T11:56:53.874Z,6.70
2023-01-15T11:59:21.373Z,6.64
2023-01-15T12:02:00.220Z,6.73
2023-01-15T12:04:49.200Z,6.69
2023-01-15T12:07:16.152Z,6.66
2023-01-15T12:10:01.061Z,6.44
2023-01-15T12:12:39.758Z,6.05
2023-01-15T12:15:31.347Z,5.64
2023-01-15T12:18:16.476Z,5.31
2023-01-15T12:21:10.221Z,5.15
2023-01-15T12:24:10.720Z,5.14
2023-01-15T12:26:49.758Z,5.01
2023-01-15T12:29:27.261Z,4.84
2023-01-15T12:32:01.791Z,4.74
2023-01-15T12:34:44.063Z,4.63
2023-01-15T12:37:20.643Z,4.63
2023-01-15T12:39:55.645Z,4.55
2023-01-15T12:42:43.564Z,4.37
2023-01-15T12:45:16.180Z,4.26
2023-01-15T12:48:09.951Z,4.28
2023-01-15T12:50:39.522Z,4.28
2023-01-15T12:53:37.517Z,4.29
2023-01-15T12:56:09.890Z,4.33
2023-01-15T12:58:45.172Z,4.35
2023-01-15T13:01:40.371Z,4.29
2023-01-15T13:04:23.942Z,4.31
2023-01-15T13:06:58.788Z,4.26
2023-01-15T13:09:41.019Z,4.27
2023-01-15T13:12:17.556Z,4.28
2023-01-15T13:14:46.539Z,4.17
2023-01-15T13:17:24.869Z,4.16
2023-01-15T13:20:14.341Z,4.23
2023-01-15T13:22:53.067Z,4.29
2023-01-15T13:25:33.098Z,4.30
2023-01-15T13:28:37.761Z,4.35
2023-01-15T13:31:12.983Z,4.46
2023-01-15T13:33:50.987Z,4.27
2023-01-15T13:36:21.056Z,4.14
2023-01-15T13:38:54.342Z,4.31
2023-01-15T13:41:44.254Z,4.50
2023-01-15T13:44:16.904Z,4.72
2023-01-15T13:46:43.797Z,4.76
2023-01-15T13:49:21.060Z,4.66
2023-01-15T13:51:50.309Z,4.30
2023-01-15T13:54:20.082Z,4.21
2023-01-15T13:56:46.562Z,4.33
2023-01-15T13:59:39.723Z,4.46
2023-01-15T14:02:24.666Z,4.46
2023-01-15T14:04:51.739Z,4.28
2023-01-15T14:07:20.377Z,4.24
2023-01-15T14:09:46.789Z,4.32
2023-01-15T14:12:15.830Z,4.49
2023-01-15T14:15:00.231Z,4.66
2023-01-15T14:17:59.308Z,4.79
2023-01-15T14:20:38.711Z,4.86
2023-01-15T14:23:29.837Z,4.86
2023-01-15T14:26:06.369Z,4.94
2023-01-15T14:28:51.732Z,5.04
2023-01-15T14:31:30.373Z,5.11
2023-01-15T14:34:12.049Z,5.15
2023-01-15T14:36:49.721Z,5.26
2023-01-15T14:39:52.033Z,5.34
2023-01-15T14:42:40.279Z,5.37
2023-01-15T14:45:12.765Z,5.33
2023-01-15T14:47:54.044Z,5.40
2023-01-15T14:50:20.485Z,5.33
2023-01-15T14:52:48.974Z,5.30
2023-01-15T14:55:17.189Z,5.31
2023-01-15T14:57:54.152Z,5.36
2023-01-15T15:00:23.677Z,5.32
2023-01-15T15:02:50.991Z,5.31
2023-01-15T15:05:20.872Z,5.24
2023-01-15T15:07:52.732Z,5.22
2023-01-15T15:10:37.621Z,5.12
2023-01-15T15:13:16.379Z,4.96
2023-01-15T15:16:08.237Z,4.84
2023-01-15T15:18:42.416Z,4.87
2023-01-15T15:21:17.704Z,5.01
2023-01-15T15:23:56.830Z,5.11
2023-01-15T15:26:37.177Z,5.12
2023-01-15T15:29:11.057Z,5.08
2023-01-15T15:31:40.800Z,5.07
2023-01-15T15:34:15.891Z,5.13
2023-01-15T15:36:45.986Z,5.20
2023-01-15T15:39:34.676Z,5.14
2023-01-15T15:42:21.395Z,5.06
2023-01-15T15:45:14.366Z,4.82
2023-01-15T15:48:01.379Z,4.63
2023-01-15T15:50:33.402Z,4.52
2023-01-15T15:53:04.435Z,4.46
2023-01-15T15:55:39.553Z,4.59
2023-01-15T15:58:09.169Z,4.80
2023-01-15T16:00:41.390Z,4.91
2023-01-15T16:03:18.605Z,4.98
2023-01-15T16:06:05.061Z,5.05
2023-01-15T16:08:33.425Z,5.08
2023-01-15T16:11:02.513Z,5.14
2023-01-15T16:13:41.774Z,5.19
2023-01-15T16:16:10.005Z,5.17
2023-01-15T16:18:41.075Z,5.17
2023-01-15T16:21:09.484Z,5.17
2023-01-15T16:23:35.874Z,5.14
2023-01-15T16:26:22.124Z,5.16
2023-01-15T16:29:00.556Z,5.21
2023-01-15T16:31:28.667Z,5.19
2023-01-15T16:33:57.406Z,5.18
2023-01-15T16:36:25.643Z,5.14
2023-01-15T16:38:52.568Z,5.09
2023-01-15T16:41:23.878Z,5.05
2023-01-15T16:43:56.270Z,5.09
2023-01-15T16:46:26.262Z,5.14
2023-01-15T16:49:20.980Z,5.19
2023-01-15T16:51:47.525Z,5.15
2023-01-15T16:54:29.396Z,5.16
2023-01-15T16:57:03.845Z,5.22
2023-01-15T16:59:30.896Z,5.22
2023-01-15T17:02:05.224Z,5.26
2023-01-15T17:04:35.495Z,5.31
2023-01-15T17:07:14.303Z,5.33
2023-01-15T17:09:52.769Z,5.38
2023-01-15T17:12:28.280Z,5.35
2023-01-15T17:14:54.693Z,5.33
2023-01-15T17:17:20.995Z,5.34
2023-01-15T17:19:47.962Z,5.38
2023-01-15T17:22:34.879Z,5.40
2023-01-15T17:25:01.820Z,5.41
2023-01-15T17:27:30.002Z,5.40
2023-01-15T17:29:56.502Z,5.41
2023-01-15T17:32:31.700Z,5.46
2023-01-15T17:34:58.216Z,5.38
2023-01-15T17:37:24.634Z,5.35
2023-01-15T17:39:51.188Z,5.18
2023-01-15T17:42:19.938Z,5.16
2023-01-15T17:44:46.803Z,5.16
2023-01-15T17:47:13.342Z,5.08
2023-01-15T17:49:39.815Z,5.11
2023-01-15T17:52:10.509Z,5.13
2023-01-15T17:54:55.447Z,5.09
2023-01-15T17:57:40.307Z,5.09
2023-01-15T18:00:26.062Z,5.12
2023-01-15T18:03:10.961Z,5.09
2023-01-15T18:05:38.085Z,5.07
2023-01-15T18:08:09.624Z,5.09
2023-01-15T18:10:36.101Z,5.07
2023-01-15T18:13:03.606Z,5.08
2023-01-15T18:15:30.417Z,5.14
2023-01-15T18:17:56.954Z,5.16
2023-01-15T18:20:23.334Z,5.17
2023-01-15T18:22:49.827Z,5.17
2023-01-15T18:25:16.242Z,5.11
2023-01-15T18:27:43.379Z,5.19
2023-01-15T18:30:12.536Z,5.23
2023-01-15T18:32:39.228Z,5.27
2023-01-15T18:35:06.412Z,5.26
2023-01-15T18:37:33.925Z,5.26
2023-01-15T18:40:00.584Z,5.27
2023-01-15T18:42:45.499Z,5.21
2023-01-15T18:45:30.455Z,5.23
2023-01-15T18:47:56.789Z,5.14
2023-01-15T18:50:23.134Z,5.13
2023-01-15T18:52:52.408Z,5.15
2023-01-15T18:55:25.659Z,4.96
2023-01-15T18:57:55.796Z,4.71
2023-01-15T19:00:24.261Z,4.61
2023-01-15T19:02:51.703Z,4.53
2023-01-15T19:05:21.349Z,4.52
2023-01-15T19:07:47.989Z,4.58
2023-01-15T19:10:16.792Z,4.55
2023-01-15T19:12:44.669Z,4.60
2023-01-15T19:15:33.009Z,4.66
2023-01-15T19:18:17.898Z,4.56
2023-01-15T19:20:44.363Z,4.48
2023-01-15T19:23:10.850Z,4.44
2023-01-15T19:25:43.031Z,4.39
2023-01-15T19:28:15.848Z,4.48
2023-01-15T19:30:42.769Z,4.61
2023-01-15T19:33:09.802Z,4.65
2023-01-15T19:35:37.732Z,4.67
2023-01-15T19:38:08.156Z,4.67
2023-01-15T19:40:37.696Z,4.64
2023-01-15T19:43:22.798Z,4.56
2023-01-15T19:46:08.142Z,4.53
2023-01-15T19:48:53.090Z,4.49
2023-01-15T19:51:21.023Z,4.44
2023-01-15T19:53:47.550Z,4.40
2023-01-15T19:56:14.082Z,4.41
2023-01-15T19:58:40.551Z,4.48
2023-01-15T20:01:14.505Z,4.48
2023-01-15T20:03:40.920Z,4.52
2023-01-15T20:06:08.467Z,4.53
2023-01-15T20:08:34.909Z,4.56
2023-01-15T20:11:01.320Z,4.55
2023-01-15T20:13:46.146Z,4.56
2023-01-15T20:16:15.426Z,4.65
2023-01-15T20:18:42.004Z,4.68
2023-01-15T20:21:08.743Z,4.73
2023-01-15T20:23:36.698Z,4.68
2023-01-15T20:26:10.202Z,4.65
2023-01-15T20:28:38.179Z,4.61
2023-01-15T20:31:04.724Z,4.62
2023-01-15T20:33:31.831Z,4.56
2023-01-15T20:36:02.669Z,4.55
2023-01-15T20:38:29.395Z,4.52
2023-01-15T20:41:15.710Z,4.37
2023-01-15T20:44:00.919Z,4.22
2023-01-15T20:46:27.336Z,4.07
2023-01-15T20:49:12.105Z,3.96
2023-01-15T20:51:38.522Z,3.87
2023-01-15T20:54:05.035Z,3.78
2023-01-15T20:56:31.542Z,3.74
2023-01-15T20:58:58.374Z,3.72
2023-01-15T21:01:26.709Z,3.72
2023-01-15T21:03:53.322Z,3.73
2023-01-15T21:06:19.926Z,3.73
2023-01-15T21:08:46.621Z,3.75
2023-01-15T21:11:13.120Z,3.77
2023-01-15T21:13:44.702Z,3.76
2023-01-15T21:16:12.654Z,3.75
2023-01-15T21:18:42.987Z,3.76
2023-01-15T21:21:11.127Z,3.76
2023-01-15T21:23:37.539Z,3.77
2023-01-15T21:26:04.051Z,3.73
2023-01-15T21:28:30.469Z,3.71
2023-01-15T21:30:57.581Z,3.68
2023-01-15T21:33:24.077Z,3.70
2023-01-15T21:35:50.485Z,3.70
2023-01-15T21:38:16.904Z,3.75
2023-01-15T21:40:43.276Z,3.76
2023-01-15T21:43:28.949Z,3.74
2023-01-15T21:46:03.441Z,3.78
2023-01-15T21:48:29.903Z,3.78
2023-01-15T21:50:56.324Z,3.77
2023-01-15T21:53:22.905Z,3.74
2023-01-15T21:55:50.531Z,3.70
2023-01-15T21:58:17.123Z,3.64
2023-01-15T22:00:43.730Z,3.52
2023-01-15T22:03:11.955Z,3.38
2023-01-15T22:05:38.390Z,3.26
2023-01-15T22:08:05.107Z,3.21
2023-01-15T22:10:31.899Z,3.18
2023-01-15T22:12:58.342Z,3.12
2023-01-15T22:15:24.721Z,3.11
2023-01-15T22:17:53.685Z,3.09
2023-01-15T22:20:20.760Z,3.10
2023-01-15T22:22:48.564Z,3.08
2023-01-15T22:25:15.674Z,3.06
2023-01-15T22:27:43.396Z,3.04
2023-01-15T22:30:11.783Z,3.00
2023-01-15T22:32:38.268Z,2.99
2023-01-15T22:35:05.688Z,3.02
2023-01-15T22:37:32.116Z,3.00
2023-01-15T22:39:58.512Z,3.01
2023-01-15T22:42:25.168Z,3.07
2023-01-15T22:44:52.275Z,3.05
2023-01-15T22:47:20.216Z,3.05
2023-01-15T22:49:46.725Z,3.04
2023-01-15T22:52:13.506Z,3.01
2023-01-15T22:54:41.349Z,2.99
2023-01-15T22:57:07.733Z,2.95
2023-01-15T22:59:34.165Z,2.95
2023-01-15T23:02:00.687Z,2.94
2023-01-15T23:04:27.499Z,2.90
2023-01-15T23:06:54.296Z,2.86
2023-01-15T23:09:22.957Z,2.84
2023-01-15T23:11:51.445Z,2.79
2023-01-15T23:14:19.495Z,2.75
2023-01-15T23:16:45.919Z,2.69
2023-01-15T23:19:12.500Z,2.65
2023-01-15T23:21:40.018Z,2.57
2023-01-15T23:24:07.238Z,2.53
2023-01-15T23:26:34.445Z,2.47
2023-01-15T23:29:01.416Z,2.38
2023-01-15T23:31:28.433Z,2.30
2023-01-15T23:33:55.004Z,2.23
2023-01-15T23:36:22.214Z,2.18
2023-01-15T23:38:48.822Z,2.15
2023-01-15T23:41:42.159Z,2.11
2023-01-15T23:44:39.135Z,2.06
2023-01-15T23:47:07.654Z,2.06
2023-01-15T23:49:34.253Z,2.08
2023-01-15T23:52:01.469Z,2.08
2023-01-15T23:54:30.084Z,2.00
2023-01-15T23:56:57.986Z,1.95
2023-01-15T23:59:25.168Z,1.95
